Lansdowne House Airport
CYLH : now visible

Airfield :











YOU CAN JOIN US ON...

 
LOGIN :

Register | Disclaimer

   EN    FR    IT 

 









Legend :    VFR   Marginal VFR   IFR   Intensive IFR   Very Intensive IFR
Visi :
Ceiling :
>= 8 km
>= 3000ft
5 to 8 km
1000 to 3000 ft
1500m to 5 km
500 to 1000 ft
800 to 1500m
200 to 500 ft
< 800m
< 200 ft
Symbols :   Thunderstorms  Fog  Heavy snow  Heavy precipitations  Wind > 20 kt







- Airport Elevation : 834 ft
- IATA code : YLH


CYLH - Lansdowne House

CURRENT METAR :
  • 211112Z AUTO 00000KT 8SM CLR 01/01 A3017 RMK SLP230

EXPIRED METARs :
  • 211100Z AUTO 00000KT 1 1/2SM BR CLR 00/00 A3016 RMK SLP228
  • 211050Z AUTO 00000KT 3SM BR CLR M00/M00 A3016 RMK SLP227
  • 211040Z AUTO 00000KT 2 1/4SM BR CLR M01/M01 A3016 RMK SLP227
  • 211030Z AUTO 00000KT 8SM CLR M01/M01 A3016 RMK SLP227
  • 211014Z AUTO 00000KT 2 1/4SM BR CLR M02/M02 A3016 RMK SLP226
  • 211004Z AUTO 00000KT 3/4SM BR CLR M01/M01 A3016 RMK SLP227
  • 211007Z AUTO 00000KT 2 1/2SM BR CLR M01/M01 A3016 RMK SLP227
  • 210942Z AUTO 24002KT 1/2SM FZFG CLR M01/M01 A3016 RMK SLP225
  • 210936Z AUTO 23002KT 5/8SM BR CLR M00/M00 A3016 RMK SLP224
  • 210901Z AUTO 21002KT 5/8SM BR CLR M01/M01 A3014 RMK SLP220
  • 210820Z AUTO 22002KT 1 1/2SM BR CLR M00/M00 A3014 RMK SLP218

TAF N/A
CZWG FIR / North America



MET'MAP, your aeronautical weather chart ! - Copyright ORBIFLY December 2007 - Disclaimer

ORBIFLY MET'MAP TEAM :

Programming & Development : Alexandra Zaïnal
Concept & Development : Baudouin d'Aumeries
Co-Development & Prog : Marc-Olivier Méhu
Technical & hardware support : Manuel Goepfert

Contact : metmap@orbifly.com




SOURCES & CREDITS :

   NOAA       Earth
Advisory